createdAt,value
2018-04-13T00:00:23.343Z,76.75
2018-04-13T00:01:26.838Z,85.32
2018-04-13T00:02:29.902Z,76.00
2018-04-13T00:03:33.030Z,77.18
2018-04-13T00:04:36.081Z,89.85
2018-04-13T00:05:39.190Z,87.28
2018-04-13T00:06:42.271Z,85.75
2018-04-13T00:07:45.422Z,79.10
2018-04-13T00:08:48.464Z,84.30
2018-04-13T00:09:51.540Z,91.82
2018-04-13T00:10:54.635Z,84.35
2018-04-13T00:11:57.682Z,93.10
2018-04-13T00:13:00.835Z,89.20
2018-04-13T00:14:03.866Z,96.70
2018-04-13T00:15:07.083Z,95.47
2018-04-13T00:16:10.625Z,97.88
2018-04-13T00:17:13.644Z,90.15
2018-04-13T00:18:16.752Z,85.70
2018-04-13T00:19:19.832Z,85.10
2018-04-13T00:20:22.886Z,85.32
2018-04-13T00:21:25.934Z,96.10
2018-04-13T00:22:28.965Z,97.65
2018-04-13T00:23:32.043Z,88.37
2018-04-13T00:24:35.121Z,96.28
2018-04-13T00:25:38.247Z,96.78
2018-04-13T00:26:41.282Z,99.95
2018-04-13T00:27:44.324Z,102.05
2018-04-13T00:28:47.438Z,104.93
2018-04-13T00:29:50.900Z,104.65
2018-04-13T00:30:54.007Z,107.18
2018-04-13T00:31:57.036Z,91.10
2018-04-13T00:33:00.112Z,92.53
2018-04-13T00:34:03.259Z,105.90
2018-04-13T00:35:06.292Z,87.32
2018-04-13T00:36:09.332Z,92.55
2018-04-13T00:37:12.426Z,100.07
2018-04-13T00:38:15.479Z,96.10
2018-04-13T00:39:18.632Z,104.30
2018-04-13T00:40:21.787Z,92.75
2018-04-13T00:41:24.837Z,94.30
2018-04-13T00:42:27.867Z,89.97
2018-04-13T00:43:30.895Z,94.07
2018-04-13T00:44:34.602Z,93.87
2018-04-13T00:45:37.834Z,101.10
2018-04-13T00:46:40.931Z,101.22
2018-04-13T00:47:44.024Z,105.55
2018-04-13T00:48:47.055Z,105.82
2018-04-13T00:49:50.133Z,94.13
2018-04-13T00:50:53.367Z,103.03
2018-04-13T00:51:56.696Z,98.80
2018-04-13T00:53:11.463Z,101.40
2018-04-13T00:54:14.546Z,103.70
2018-04-13T00:55:17.635Z,97.40
2018-04-13T00:56:20.665Z,97.40
2018-04-13T00:57:23.815Z,95.10
2018-04-13T00:58:26.930Z,95.20
2018-04-13T00:59:30.009Z,96.32
2018-04-13T01:00:33.141Z,106.90
2018-04-13T01:01:36.195Z,96.43
2018-04-13T01:02:39.271Z,103.00
2018-04-13T01:03:42.443Z,99.72
2018-04-13T01:04:45.535Z,95.70
2018-04-13T01:05:48.615Z,106.10
2018-04-13T01:06:51.894Z,120.03
2018-04-13T01:07:54.999Z,103.32
2018-04-13T01:08:58.112Z,98.50
2018-04-13T01:10:01.146Z,97.75
2018-04-13T01:11:04.312Z,104.55
2018-04-13T01:12:07.422Z,104.95
2018-04-13T01:13:10.610Z,105.43
2018-04-13T01:14:13.737Z,101.07
2018-04-13T01:15:16.828Z,115.60
2018-04-13T01:16:19.932Z,101.57
2018-04-13T01:17:23.081Z,112.10
2018-04-13T01:18:26.359Z,106.07
2018-04-13T01:19:29.669Z,109.45
2018-04-13T01:20:32.726Z,108.57
2018-04-13T01:21:35.784Z,96.70
2018-04-13T01:22:38.862Z,92.88
2018-04-13T01:23:41.908Z,104.70
2018-04-13T01:24:45.019Z,102.95
2018-04-13T01:25:48.058Z,96.30
2018-04-13T01:26:51.149Z,104.78
2018-04-13T01:27:54.478Z,107.75
2018-04-13T01:28:57.577Z,113.12
2018-04-13T01:30:00.714Z,112.70
2018-04-13T01:31:03.869Z,114.40
2018-04-13T01:32:07.418Z,98.35
2018-04-13T01:33:10.467Z,109.80
2018-04-13T01:34:13.762Z,98.28
2018-04-13T01:35:16.958Z,97.12
2018-04-13T01:36:20.020Z,106.35
2018-04-13T01:37:23.145Z,107.97
2018-04-13T01:38:26.462Z,95.55
2018-04-13T01:39:29.553Z,99.03
2018-04-13T01:40:32.611Z,101.28
2018-04-13T01:41:35.706Z,98.75
2018-04-13T01:42:39.035Z,101.82
2018-04-13T01:43:42.087Z,107.75
2018-04-13T01:44:45.343Z,105.63
2018-04-13T01:45:48.528Z,103.57
2018-04-13T01:46:51.839Z,107.65
2018-04-13T01:47:55.002Z,100.93
2018-04-13T01:48:58.049Z,110.18
2018-04-13T01:50:01.147Z,110.72
2018-04-13T01:51:04.501Z,106.10
2018-04-13T01:52:07.579Z,93.18
2018-04-13T01:53:10.671Z,106.22
2018-04-13T01:54:13.804Z,107.65
2018-04-13T01:55:17.232Z,103.57
2018-04-13T01:56:20.305Z,111.18
2018-04-13T01:57:23.345Z,99.82
2018-04-13T01:58:26.680Z,101.20
2018-04-13T01:59:29.753Z,111.00
2018-04-13T02:00:32.813Z,102.15
2018-04-13T02:01:36.192Z,102.72
2018-04-13T02:02:39.226Z,102.45
2018-04-13T02:03:42.304Z,104.12
2018-04-13T02:04:45.365Z,104.50
2018-04-13T02:05:48.473Z,105.28
2018-04-13T02:06:51.534Z,108.05
2018-04-13T02:07:54.648Z,106.22
2018-04-13T02:08:57.794Z,104.85
2018-04-13T02:10:00.827Z,101.95
2018-04-13T02:11:03.995Z,107.43
2018-04-13T02:12:07.066Z,106.47
2018-04-13T02:13:10.171Z,112.93
2018-04-13T02:14:13.679Z,106.57
2018-04-13T02:15:16.920Z,118.75
2018-04-13T02:16:20.168Z,115.45
2018-04-13T02:17:23.258Z,117.55
2018-04-13T02:18:26.779Z,121.35
2018-04-13T02:19:29.820Z,129.48
2018-04-13T02:20:32.922Z,131.05
2018-04-13T02:21:36.228Z,149.00
2018-04-13T02:22:39.326Z,138.18
2018-04-13T02:23:42.369Z,137.00
2018-04-13T02:24:45.452Z,126.97
2018-04-13T02:25:48.561Z,127.65
2018-04-13T02:26:51.610Z,128.57
2018-04-13T02:27:54.731Z,152.27
2018-04-13T02:28:57.979Z,123.80
2018-04-13T02:30:01.074Z,125.43
2018-04-13T02:31:04.135Z,130.18
2018-04-13T02:32:07.275Z,128.68
2018-04-13T02:33:10.439Z,125.25
2018-04-13T02:34:13.729Z,128.30
2018-04-13T02:35:16.843Z,125.82
2018-04-13T02:36:19.899Z,126.32
2018-04-13T02:37:22.973Z,119.40
2018-04-13T02:38:26.251Z,129.52
2018-04-13T02:39:29.293Z,113.80
2018-04-13T02:40:32.370Z,114.78
2018-04-13T02:41:35.422Z,122.57
2018-04-13T02:42:39.024Z,118.82
2018-04-13T02:43:42.292Z,120.90
2018-04-13T02:44:45.347Z,122.68
2018-04-13T02:45:48.767Z,139.55
2018-04-13T02:46:51.846Z,122.93
2018-04-13T02:47:54.943Z,120.72
2018-04-13T02:48:58.014Z,127.50
2018-04-13T02:50:01.097Z,137.62
2018-04-13T02:51:04.372Z,123.70
2018-04-13T02:52:07.457Z,117.35
2018-04-13T02:53:10.502Z,129.60
2018-04-13T02:54:13.588Z,112.65
2018-04-13T02:55:16.702Z,135.15
2018-04-13T02:57:29.064Z,127.95
2018-04-13T02:58:32.127Z,115.93
2018-04-13T02:59:35.186Z,128.85
2018-04-13T03:00:38.647Z,117.60
2018-04-13T03:01:41.762Z,114.68
2018-04-13T03:02:45.079Z,117.35
2018-04-13T03:03:48.186Z,124.82
2018-04-13T03:04:51.239Z,108.50
2018-04-13T03:05:54.415Z,118.82
2018-04-13T03:06:57.521Z,111.70
2018-04-13T03:08:00.624Z,125.93
2018-04-13T03:09:03.696Z,113.25
2018-04-13T03:10:06.805Z,126.70
2018-04-13T03:11:09.903Z,127.43
2018-04-13T03:12:12.994Z,121.07
2018-04-13T03:13:16.044Z,118.60
2018-04-13T03:14:19.152Z,122.95
2018-04-13T03:15:22.290Z,127.72
2018-04-13T03:16:25.335Z,130.25
2018-04-13T03:17:28.393Z,116.25
2018-04-13T03:18:31.456Z,124.95
2018-04-13T03:19:34.555Z,116.32
2018-04-13T03:20:37.585Z,118.07
2018-04-13T03:21:40.718Z,117.25
2018-04-13T03:22:44.127Z,112.28
2018-04-13T03:23:47.254Z,124.65
2018-04-13T03:24:50.295Z,117.68
2018-04-13T03:25:53.373Z,113.50
2018-04-13T03:26:56.712Z,127.00
2018-04-13T03:27:59.868Z,129.95
2018-04-13T03:29:02.898Z,124.97
2018-04-13T03:30:06.266Z,123.55
2018-04-13T03:31:09.411Z,118.65
2018-04-13T03:32:12.502Z,116.82
2018-04-13T03:33:15.705Z,114.65
2018-04-13T03:34:18.783Z,125.28
2018-04-13T03:35:22.061Z,116.18
2018-04-13T03:36:25.113Z,113.00
2018-04-13T03:37:28.158Z,123.97
2018-04-13T03:38:31.235Z,123.57
2018-04-13T03:39:34.618Z,117.05
2018-04-13T03:40:37.663Z,122.53
2018-04-13T03:41:40.710Z,134.18
2018-04-13T03:42:43.777Z,122.78
2018-04-13T03:43:46.842Z,122.45
2018-04-13T03:44:49.894Z,135.55
2018-04-13T03:45:53.027Z,128.90
2018-04-13T03:46:56.126Z,124.65
2018-04-13T03:47:59.208Z,122.93
2018-04-13T03:49:02.287Z,119.43
2018-04-13T03:50:05.473Z,111.62
2018-04-13T03:51:09.479Z,118.43
2018-04-13T03:52:12.792Z,125.85
2018-04-13T03:53:15.964Z,122.75
2018-04-13T03:54:19.312Z,124.72
2018-04-13T03:55:22.821Z,118.68
2018-04-13T03:56:25.879Z,122.72
2018-04-13T03:57:29.037Z,111.80
2018-04-13T03:58:32.130Z,116.25
2018-04-13T03:59:35.218Z,103.15
2018-04-13T04:00:38.279Z,112.45
2018-04-13T04:01:41.368Z,118.62
2018-04-13T04:02:44.434Z,115.60
2018-04-13T04:03:47.533Z,123.40
2018-04-13T04:04:50.600Z,126.50
2018-04-13T04:05:53.831Z,111.68
2018-04-13T04:06:56.906Z,121.68
2018-04-13T04:07:59.964Z,122.03
2018-04-13T04:09:03.055Z,113.03
2018-04-13T04:10:06.238Z,110.12
2018-04-13T04:11:09.292Z,113.82
2018-04-13T04:12:12.397Z,112.55
2018-04-13T04:13:15.520Z,104.70
2018-04-13T04:14:18.581Z,118.10
2018-04-13T04:15:21.675Z,113.78
2018-04-13T04:16:24.758Z,116.00
2018-04-13T04:17:27.875Z,138.07
2018-04-13T04:18:31.255Z,131.65
2018-04-13T04:19:45.935Z,116.28
2018-04-13T04:21:00.762Z,121.43
2018-04-13T04:22:15.618Z,110.30
2018-04-13T04:23:30.515Z,110.25
2018-04-13T04:24:45.626Z,121.65
2018-04-13T04:26:00.352Z,111.57
2018-04-13T04:27:03.406Z,112.82
2018-04-13T04:28:06.450Z,110.70
2018-04-13T04:29:09.563Z,104.00
2018-04-13T04:30:12.638Z,115.12
2018-04-13T04:31:15.996Z,103.87
2018-04-13T04:32:19.083Z,114.50
2018-04-13T04:33:22.133Z,101.55
2018-04-13T04:34:25.287Z,107.90
2018-04-13T04:35:28.346Z,105.15
2018-04-13T04:36:31.456Z,127.03
2018-04-13T04:37:34.610Z,125.60
2018-04-13T04:38:37.681Z,124.22
2018-04-13T04:39:40.722Z,141.07
2018-04-13T04:40:43.770Z,128.68
2018-04-13T04:41:46.846Z,140.15
2018-04-13T04:42:49.944Z,120.50
2018-04-13T04:43:53.068Z,138.90
2018-04-13T04:44:56.223Z,127.03
2018-04-13T04:45:59.258Z,195.35
2018-04-13T04:47:02.350Z,150.18
2018-04-13T04:48:05.444Z,156.87
2018-04-13T04:49:08.487Z,161.15
2018-04-13T04:50:11.526Z,188.82
2018-04-13T04:51:14.810Z,222.12
2018-04-13T04:52:17.923Z,190.77
2018-04-13T04:53:21.041Z,190.32
2018-04-13T04:54:24.588Z,291.63
2018-04-13T04:55:27.722Z,253.73
2018-04-13T04:56:30.869Z,254.32
2018-04-13T04:57:34.221Z,224.02
2018-04-13T04:58:37.435Z,247.40
2018-04-13T04:59:40.580Z,304.02
2018-04-13T05:00:43.666Z,424.20
2018-04-13T05:01:46.767Z,398.90
2018-04-13T05:02:49.850Z,425.05
2018-04-13T05:03:52.902Z,292.10
2018-04-13T05:04:56.012Z,320.60
2018-04-13T05:05:59.063Z,388.85
2018-04-13T05:07:02.107Z,379.80
2018-04-13T05:08:05.220Z,380.27
2018-04-13T05:09:08.262Z,295.58
2018-04-13T05:10:11.407Z,261.52
2018-04-13T05:11:14.492Z,405.60
2018-04-13T05:12:17.576Z,298.52
2018-04-13T05:13:20.704Z,399.33
2018-04-13T05:14:23.953Z,539.85
2018-04-13T05:15:27.049Z,437.33
2018-04-13T05:16:30.159Z,418.70
2018-04-13T05:17:33.234Z,348.92
2018-04-13T05:18:36.361Z,312.45
2018-04-13T05:19:39.498Z,304.50
2018-04-13T05:20:42.632Z,336.48
2018-04-13T05:21:45.703Z,337.30
2018-04-13T05:22:48.749Z,316.98
2018-04-13T05:23:51.862Z,380.08
2018-04-13T05:24:55.489Z,297.98
2018-04-13T05:25:58.586Z,315.62
2018-04-13T05:27:01.645Z,311.75
2018-04-13T05:28:04.706Z,349.33
2018-04-13T05:29:07.857Z,282.60
2018-04-13T05:30:11.026Z,351.45
2018-04-13T05:31:14.434Z,344.80
2018-04-13T05:32:17.732Z,322.75
2018-04-13T05:33:21.287Z,228.90
2018-04-13T05:34:24.470Z,245.12
2018-04-13T05:35:27.562Z,292.15
2018-04-13T05:36:30.647Z,245.43
2018-04-13T05:37:33.675Z,343.73
2018-04-13T05:38:37.022Z,212.05
2018-04-13T05:39:40.178Z,309.92
2018-04-13T05:40:43.279Z,375.40
2018-04-13T05:41:46.431Z,364.20
2018-04-13T05:42:49.626Z,400.30
2018-04-13T05:43:52.736Z,328.95
2018-04-13T05:44:55.809Z,382.62
2018-04-13T05:45:58.954Z,370.90
2018-04-13T05:47:02.000Z,500.08
2018-04-13T05:48:05.328Z,293.42
2018-04-13T05:49:08.399Z,347.52
2018-04-13T05:50:11.494Z,408.05
2018-04-13T05:51:14.939Z,414.67
2018-04-13T05:52:18.119Z,448.37
2018-04-13T05:53:21.294Z,387.27
2018-04-13T05:54:24.363Z,434.60
2018-04-13T05:55:27.539Z,307.48
2018-04-13T05:56:30.612Z,351.08
2018-04-13T05:57:33.685Z,261.17
2018-04-13T05:58:36.817Z,301.08
2018-04-13T05:59:39.861Z,241.10
2018-04-13T06:00:43.451Z,286.27
2018-04-13T06:01:46.789Z,307.27
2018-04-13T06:02:49.943Z,243.85
2018-04-13T06:03:53.026Z,259.73
2018-04-13T06:04:56.090Z,272.70
2018-04-13T06:05:59.219Z,196.50
2018-04-13T06:07:02.324Z,267.58
2018-04-13T06:08:05.387Z,180.52
2018-04-13T06:09:08.508Z,202.95
2018-04-13T06:10:11.631Z,217.75
2018-04-13T06:11:14.854Z,175.82
2018-04-13T06:12:17.900Z,166.68
2018-04-13T06:13:20.981Z,191.20
2018-04-13T06:14:23.998Z,170.65
2018-04-13T06:15:27.129Z,176.93
2018-04-13T06:16:30.245Z,174.73
2018-04-13T06:17:33.338Z,164.13
2018-04-13T06:18:36.458Z,169.75
2018-04-13T06:19:39.555Z,173.13
2018-04-13T06:20:42.691Z,156.90
2018-04-13T06:21:45.863Z,135.50
2018-04-13T06:22:48.908Z,149.43
2018-04-13T06:23:51.992Z,151.68
2018-04-13T06:24:55.039Z,152.05
2018-04-13T06:25:58.085Z,138.12
2018-04-13T06:27:01.257Z,130.75
2018-04-13T06:28:04.404Z,144.65
2018-04-13T06:29:07.515Z,140.40
2018-04-13T06:30:10.604Z,154.65
2018-04-13T06:31:13.686Z,147.32
2018-04-13T06:32:16.803Z,145.02
2018-04-13T06:33:19.900Z,136.23
2018-04-13T06:34:23.066Z,143.23
2018-04-13T06:35:26.272Z,150.52
2018-04-13T06:36:29.551Z,138.55
2018-04-13T06:37:32.963Z,141.18
2018-04-13T06:38:36.151Z,138.30
2018-04-13T06:39:39.261Z,144.15
2018-04-13T06:40:42.362Z,141.27
2018-04-13T06:41:45.422Z,126.60
2018-04-13T06:42:48.506Z,144.50
2018-04-13T06:43:51.574Z,147.45
2018-04-13T06:44:54.734Z,143.82
2018-04-13T06:45:57.833Z,143.45
2018-04-13T06:47:00.950Z,148.32
2018-04-13T06:48:04.061Z,201.10
2018-04-13T06:49:07.101Z,174.80
2018-04-13T06:50:10.158Z,209.25
2018-04-13T06:51:13.230Z,187.05
2018-04-13T06:52:16.473Z,183.60
2018-04-13T06:53:19.566Z,154.73
2018-04-13T06:54:22.694Z,144.43
2018-04-13T06:55:25.897Z,150.93
2018-04-13T06:56:28.989Z,153.38
2018-04-13T06:57:32.069Z,150.75
2018-04-13T06:58:35.141Z,152.80
2018-04-13T06:59:38.267Z,146.77
2018-04-13T07:00:41.370Z,157.30
2018-04-13T07:01:44.424Z,149.00
2018-04-13T07:02:47.462Z,144.77
2018-04-13T07:03:50.543Z,152.35
2018-04-13T07:04:53.599Z,147.48
2018-04-13T07:05:56.737Z,147.50
2018-04-13T07:06:59.918Z,146.50
2018-04-13T07:08:03.036Z,140.30
2018-04-13T07:09:06.143Z,164.80
2018-04-13T07:10:09.315Z,174.68
2018-04-13T07:11:12.409Z,162.18
2018-04-13T07:12:15.546Z,169.23
2018-04-13T07:13:18.667Z,179.93
2018-04-13T07:14:21.727Z,173.48
2018-04-13T07:15:25.128Z,184.52
2018-04-13T07:16:28.209Z,171.35
2018-04-13T07:17:31.280Z,179.38
2018-04-13T07:18:34.371Z,188.23
2018-04-13T07:19:37.520Z,183.65
2018-04-13T07:20:40.746Z,166.52
2018-04-13T07:21:43.792Z,176.12
2018-04-13T07:22:47.143Z,179.18
2018-04-13T07:23:50.952Z,181.82
2018-04-13T07:24:54.069Z,186.85
2018-04-13T07:25:57.301Z,193.77
2018-04-13T07:27:00.327Z,176.95
2018-04-13T07:28:03.370Z,183.45
2018-04-13T07:29:06.527Z,185.50
2018-04-13T07:30:09.663Z,180.40
2018-04-13T07:31:12.739Z,174.00
2018-04-13T07:32:15.783Z,167.90
2018-04-13T07:33:18.846Z,173.82
2018-04-13T07:34:22.629Z,189.40
2018-04-13T07:35:25.054Z,172.75
2018-04-13T07:36:28.123Z,176.90
2018-04-13T07:37:31.306Z,178.27
2018-04-13T07:38:34.295Z,170.55
2018-04-13T07:39:37.502Z,184.20
2018-04-13T07:40:40.532Z,178.02
2018-04-13T07:41:43.591Z,184.98
2018-04-13T07:42:47.090Z,188.93
2018-04-13T07:43:50.043Z,166.55
2018-04-13T07:44:53.557Z,190.57
2018-04-13T07:45:56.472Z,249.35
2018-04-13T07:46:59.522Z,212.57
2018-04-13T07:48:02.563Z,190.65
2018-04-13T07:49:05.676Z,193.23
2018-04-13T07:50:08.849Z,187.10
2018-04-13T07:51:12.218Z,186.55
2018-04-13T07:52:15.273Z,174.35
2018-04-13T07:53:19.173Z,174.25
2018-04-13T07:54:22.199Z,179.20
2018-04-13T07:55:25.270Z,167.18
2018-04-13T07:56:28.350Z,172.93
2018-04-13T07:57:31.406Z,173.82
2018-04-13T07:58:34.514Z,187.88
2018-04-13T07:59:37.589Z,180.82
2018-04-13T08:00:40.708Z,185.73
2018-04-13T08:01:43.862Z,181.60
2018-04-13T08:02:46.906Z,179.15
2018-04-13T08:03:50.177Z,170.87
2018-04-13T08:04:53.237Z,176.73
2018-04-13T08:05:56.296Z,185.40
2018-04-13T08:06:59.414Z,172.25
2018-04-13T08:08:02.471Z,177.95
2018-04-13T08:09:06.253Z,177.73
2018-04-13T08:10:09.320Z,177.52
2018-04-13T08:11:12.536Z,185.68
2018-04-13T08:12:15.626Z,176.07
2018-04-13T08:13:18.981Z,179.63
2018-04-13T08:14:21.762Z,178.12
2018-04-13T08:15:24.805Z,167.70
2018-04-13T08:16:27.889Z,169.75
2018-04-13T08:17:31.086Z,169.10
2018-04-13T08:18:34.137Z,170.18
2018-04-13T08:19:37.223Z,195.05
2018-04-13T08:20:40.570Z,195.00
2018-04-13T08:21:43.611Z,191.10
2018-04-13T08:22:46.792Z,167.15
2018-04-13T08:23:49.936Z,151.48
2018-04-13T08:24:53.101Z,133.57
2018-04-13T08:25:56.199Z,144.13
2018-04-13T08:26:59.290Z,132.32
2018-04-13T08:28:02.410Z,173.98
2018-04-13T08:29:05.696Z,147.02
2018-04-13T08:30:09.267Z,145.50
2018-04-13T08:31:12.316Z,173.32
2018-04-13T08:32:15.453Z,149.15
2018-04-13T08:33:18.519Z,152.25
2018-04-13T08:34:21.667Z,144.73
2018-04-13T08:35:24.729Z,136.55
2018-04-13T08:36:27.825Z,131.75
2018-04-13T08:37:31.003Z,136.52
2018-04-13T08:38:34.354Z,144.35
2018-04-13T08:39:37.566Z,146.15
2018-04-13T08:40:40.730Z,137.20
2018-04-13T08:41:43.944Z,131.65
2018-04-13T08:42:46.978Z,143.65
2018-04-13T08:43:50.102Z,139.70
2018-04-13T08:44:53.176Z,155.52
2018-04-13T08:45:56.244Z,128.57
2018-04-13T08:46:59.527Z,131.75
2018-04-13T08:48:02.915Z,144.85
2018-04-13T08:49:06.157Z,139.65
2018-04-13T08:50:09.119Z,121.03
2018-04-13T08:51:12.221Z,135.27
2018-04-13T08:52:15.306Z,125.70
2018-04-13T08:53:18.574Z,129.52
2018-04-13T08:54:21.756Z,128.50
2018-04-13T08:55:24.841Z,115.07
2018-04-13T08:56:27.932Z,132.12
2018-04-13T08:57:30.992Z,130.80
2018-04-13T08:58:34.035Z,122.43
2018-04-13T08:59:37.165Z,154.65
2018-04-13T09:00:40.248Z,132.35
2018-04-13T09:01:43.413Z,131.93
2018-04-13T09:02:46.567Z,130.87
2018-04-13T09:03:49.627Z,114.72
2018-04-13T09:04:52.867Z,126.20
2018-04-13T09:05:55.941Z,121.05
2018-04-13T09:06:59.032Z,124.93
2018-04-13T09:08:02.121Z,115.28
2018-04-13T09:09:05.244Z,102.85
2018-04-13T09:10:08.592Z,125.07
2018-04-13T09:11:11.702Z,116.18
2018-04-13T09:12:14.840Z,111.82
2018-04-13T09:13:17.882Z,109.82
2018-04-13T09:14:20.928Z,98.55
2018-04-13T09:15:24.051Z,100.80
2018-04-13T09:16:27.139Z,114.65
2018-04-13T09:17:30.201Z,92.60
2018-04-13T09:18:33.482Z,87.25
2018-04-13T09:19:36.656Z,67.75
2018-04-13T09:20:39.751Z,69.78
2018-04-13T09:21:42.873Z,67.07
2018-04-13T09:22:45.907Z,67.45
2018-04-13T09:23:48.942Z,67.95
2018-04-13T09:24:52.007Z,69.87
2018-04-13T09:25:55.146Z,63.42
2018-04-13T09:26:58.401Z,54.50
2018-04-13T09:28:01.724Z,46.17
2018-04-13T09:29:04.578Z,56.55
2018-04-13T09:30:08.076Z,57.28
2018-04-13T09:31:11.155Z,59.22
2018-04-13T09:32:14.305Z,49.78
2018-04-13T09:33:17.372Z,49.40
2018-04-13T09:34:20.454Z,48.75
2018-04-13T09:35:23.521Z,44.63
2018-04-13T09:36:26.610Z,43.80
2018-04-13T09:37:29.689Z,48.72
2018-04-13T09:38:32.739Z,41.85
2018-04-13T09:39:35.783Z,36.88
2018-04-13T09:40:38.824Z,41.67
2018-04-13T09:41:41.912Z,35.10
2018-04-13T09:42:45.006Z,39.00
2018-04-13T09:43:48.089Z,40.97
2018-04-13T09:44:51.353Z,37.63
2018-04-13T09:45:55.013Z,41.17
2018-04-13T09:46:58.155Z,54.58
2018-04-13T09:48:01.305Z,38.65
2018-04-13T09:49:04.351Z,31.42
2018-04-13T09:50:07.655Z,30.60
2018-04-13T09:51:10.750Z,33.78
2018-04-13T09:52:13.848Z,35.28
2018-04-13T09:53:16.947Z,35.47
2018-04-13T09:55:29.796Z,35.63
2018-04-13T09:56:33.000Z,36.33
2018-04-13T09:57:36.084Z,34.05
2018-04-13T09:58:39.141Z,36.00
2018-04-13T09:59:42.181Z,34.95
2018-04-13T10:00:45.363Z,34.88
2018-04-13T10:01:48.415Z,36.95
2018-04-13T10:02:57.048Z,40.28
2018-04-13T10:04:14.999Z,39.30
2018-04-13T10:05:18.071Z,45.20
2018-04-13T10:06:21.139Z,43.13
2018-04-13T10:07:24.234Z,41.58
2018-04-13T10:08:27.290Z,39.75
2018-04-13T10:09:30.396Z,45.30
2018-04-13T10:10:33.502Z,44.63
2018-04-13T10:11:36.568Z,42.83
2018-04-13T10:12:40.088Z,44.60
2018-04-13T10:13:43.237Z,48.00
2018-04-13T10:14:46.291Z,43.25
2018-04-13T10:15:49.345Z,45.28
2018-04-13T10:16:52.606Z,45.67
2018-04-13T10:17:55.876Z,40.95
2018-04-13T10:18:58.930Z,43.50
2018-04-13T10:20:02.024Z,39.03
2018-04-13T10:21:05.193Z,37.67
2018-04-13T10:22:08.332Z,38.03
2018-04-13T10:23:11.724Z,35.85
2018-04-13T10:24:14.918Z,33.08
2018-04-13T10:25:18.024Z,41.72
2018-04-13T10:26:21.290Z,30.05
2018-04-13T10:27:24.418Z,34.47
2018-04-13T10:28:27.577Z,41.37
2018-04-13T10:29:30.777Z,37.38
2018-04-13T10:30:33.870Z,39.53
2018-04-13T10:31:36.985Z,45.50
2018-04-13T10:32:40.137Z,40.15
2018-04-13T10:33:43.370Z,38.88
2018-04-13T10:34:46.552Z,34.55
2018-04-13T10:35:49.675Z,45.85
2018-04-13T10:36:52.751Z,44.55
2018-04-13T10:37:55.915Z,43.08
2018-04-13T10:38:58.958Z,40.55
2018-04-13T10:40:02.102Z,40.08
2018-04-13T10:41:05.199Z,46.92
2018-04-13T10:42:08.265Z,35.33
2018-04-13T10:43:11.392Z,35.63
2018-04-13T10:44:14.479Z,37.00
2018-04-13T10:45:17.730Z,34.72
2018-04-13T10:46:20.897Z,36.15
2018-04-13T10:47:23.951Z,28.65
2018-04-13T10:48:26.978Z,26.55
2018-04-13T10:49:30.048Z,29.90
2018-04-13T10:50:33.396Z,29.45
2018-04-13T10:51:36.474Z,29.30
2018-04-13T10:52:39.610Z,30.58
2018-04-13T10:53:42.689Z,27.70
2018-04-13T10:54:47.250Z,23.33
2018-04-13T10:55:50.396Z,23.02
2018-04-13T10:56:53.494Z,26.73
2018-04-13T10:57:56.518Z,23.92
2018-04-13T10:58:59.674Z,23.25
2018-04-13T11:00:02.728Z,25.83
2018-04-13T11:01:05.843Z,29.45
2018-04-13T11:02:08.930Z,24.10
2018-04-13T11:03:11.983Z,35.67
2018-04-13T11:04:15.229Z,27.35
2018-04-13T11:05:18.343Z,29.80
2018-04-13T11:06:21.412Z,31.00
2018-04-13T11:07:24.480Z,25.95
2018-04-13T11:08:27.578Z,25.37
2018-04-13T11:09:30.668Z,25.12
2018-04-13T11:10:33.716Z,24.80
2018-04-13T11:11:36.805Z,28.75
2018-04-13T11:12:39.845Z,25.85
2018-04-13T11:13:42.958Z,26.60
2018-04-13T11:14:46.220Z,24.23
2018-04-13T11:15:49.413Z,21.48
2018-04-13T11:16:52.523Z,27.30
2018-04-13T11:17:55.768Z,23.17
2018-04-13T11:18:58.886Z,24.67
2018-04-13T11:20:01.954Z,21.55
2018-04-13T11:21:05.033Z,25.20
2018-04-13T11:22:08.138Z,24.92
2018-04-13T11:23:11.239Z,23.75
2018-04-13T11:24:14.309Z,26.05
2018-04-13T11:25:17.395Z,21.87
2018-04-13T11:26:20.529Z,22.80
2018-04-13T11:27:23.821Z,22.33
2018-04-13T11:28:26.885Z,27.85
2018-04-13T11:29:29.977Z,29.80
2018-04-13T11:30:33.079Z,22.58
2018-04-13T11:31:36.180Z,26.65
2018-04-13T11:32:39.312Z,18.35
2018-04-13T11:33:42.427Z,23.40
2018-04-13T11:34:45.570Z,20.92
2018-04-13T11:35:48.639Z,23.83
2018-04-13T11:36:51.769Z,27.95
2018-04-13T11:37:54.842Z,21.40
2018-04-13T11:38:57.908Z,21.67
2018-04-13T11:40:00.982Z,22.83
2018-04-13T11:41:04.006Z,27.35
2018-04-13T11:42:07.074Z,23.90
2018-04-13T11:43:10.119Z,20.92
2018-04-13T11:44:13.198Z,21.45
2018-04-13T11:45:16.303Z,22.90
2018-04-13T11:46:19.362Z,24.98
2018-04-13T11:47:22.506Z,24.95
2018-04-13T11:48:25.594Z,22.52
2018-04-13T11:49:28.663Z,20.45
2018-04-13T11:50:31.719Z,25.20
2018-04-13T11:51:34.984Z,22.33
2018-04-13T11:52:38.042Z,19.73
2018-04-13T11:53:41.125Z,18.73
2018-04-13T11:54:44.198Z,33.88
2018-04-13T11:55:47.474Z,23.83
2018-04-13T11:56:50.663Z,24.85
2018-04-13T11:57:53.703Z,21.92
2018-04-13T11:58:56.774Z,25.70
2018-04-13T11:59:59.848Z,23.87
2018-04-13T12:01:02.956Z,22.37
2018-04-13T12:02:06.087Z,25.42
2018-04-13T12:03:09.137Z,24.80
2018-04-13T12:04:12.218Z,23.80
2018-04-13T12:05:15.313Z,22.48
2018-04-13T12:06:18.395Z,30.40
2018-04-13T12:07:21.653Z,21.55
2018-04-13T12:08:24.795Z,20.50
2018-04-13T12:09:27.963Z,19.45
2018-04-13T12:10:31.054Z,28.30
2018-04-13T12:11:34.093Z,21.00
2018-04-13T12:12:37.364Z,18.20
2018-04-13T12:13:40.433Z,19.90
2018-04-13T12:14:43.531Z,20.12
2018-04-13T12:15:46.924Z,21.35
2018-04-13T12:16:50.140Z,20.23
2018-04-13T12:17:53.224Z,17.15
2018-04-13T12:18:56.325Z,14.13
2018-04-13T12:19:59.575Z,15.50
2018-04-13T12:21:02.867Z,14.85
2018-04-13T12:22:06.006Z,16.55
2018-04-13T12:23:09.095Z,14.10
2018-04-13T12:24:12.203Z,13.95
2018-04-13T12:25:15.322Z,13.35
2018-04-13T12:26:18.430Z,14.27
2018-04-13T12:27:21.457Z,13.88
2018-04-13T12:28:24.579Z,15.48
2018-04-13T12:29:27.702Z,12.00
2018-04-13T12:30:30.887Z,11.98
2018-04-13T12:31:33.980Z,10.80
2018-04-13T12:32:37.043Z,12.52
2018-04-13T12:33:40.130Z,12.05
2018-04-13T12:34:43.165Z,16.05
2018-04-13T12:35:46.291Z,11.93
2018-04-13T12:36:49.366Z,12.70
2018-04-13T12:37:52.504Z,12.65
2018-04-13T12:38:55.539Z,10.38
2018-04-13T12:39:58.611Z,10.20
2018-04-13T12:41:01.710Z,11.68
2018-04-13T12:42:04.882Z,12.75
2018-04-13T12:43:07.955Z,14.20
2018-04-13T12:44:11.012Z,10.82
2018-04-13T12:45:14.201Z,14.73
2018-04-13T12:46:17.454Z,11.73
2018-04-13T12:47:20.595Z,15.52
2018-04-13T12:48:23.803Z,12.93
2018-04-13T12:49:26.841Z,11.05
2018-04-13T12:50:29.904Z,11.27
2018-04-13T12:51:33.063Z,12.73
2018-04-13T12:52:36.478Z,12.02
2018-04-13T12:53:39.505Z,11.40
2018-04-13T12:54:42.816Z,13.43
2018-04-13T12:55:45.846Z,12.07
2018-04-13T12:56:49.064Z,21.05
2018-04-13T12:57:52.174Z,19.77
2018-04-13T12:58:55.244Z,14.25
2018-04-13T12:59:58.407Z,13.98
2018-04-13T13:01:01.507Z,14.45
2018-04-13T13:02:04.696Z,10.38
2018-04-13T13:03:07.815Z,8.27
2018-04-13T13:04:10.899Z,9.30
2018-04-13T13:05:14.005Z,8.60
2018-04-13T13:06:17.099Z,9.23
2018-04-13T13:07:20.193Z,6.40
2018-04-13T13:08:23.240Z,8.65
2018-04-13T13:09:26.309Z,9.23
2018-04-13T13:10:29.371Z,6.50
2018-04-13T13:11:32.463Z,6.28
2018-04-13T13:12:35.694Z,9.43
2018-04-13T13:13:38.778Z,8.95
2018-04-13T13:14:42.047Z,6.87
2018-04-13T13:15:45.123Z,8.45
2018-04-13T13:16:48.246Z,11.45
2018-04-13T13:17:51.357Z,8.40
2018-04-13T13:18:54.534Z,7.32
2018-04-13T13:19:57.541Z,8.77
2018-04-13T13:21:00.590Z,13.27
2018-04-13T13:22:03.661Z,10.18